createdAt,value
2022-11-18T00:00:39.725Z,89.14
2022-11-18T00:06:59.671Z,89.13
2022-11-18T00:13:22.581Z,89.08
2022-11-18T00:19:42.608Z,89.27
2022-11-18T00:26:05.644Z,89.16
2022-11-18T00:32:25.570Z,89.11
2022-11-18T00:38:48.621Z,89.14
2022-11-18T00:45:08.596Z,89.23
2022-11-18T00:51:31.614Z,89.28
2022-11-18T00:57:51.593Z,89.22
2022-11-18T01:04:14.572Z,89.31
2022-11-18T01:10:34.610Z,89.37
2022-11-18T01:16:57.631Z,89.43
2022-11-18T01:23:17.617Z,89.48
2022-11-18T01:29:40.555Z,89.39
2022-11-18T01:36:00.639Z,89.37
2022-11-18T01:42:23.592Z,89.18
2022-11-18T01:48:43.578Z,89.2
2022-11-18T01:55:06.587Z,89.4
2022-11-18T02:01:26.642Z,89.71
2022-11-18T02:07:49.591Z,89.68
2022-11-18T02:14:09.619Z,89.61
2022-11-18T02:20:32.584Z,89.65
2022-11-18T02:26:52.570Z,89.69
2022-11-18T02:33:15.587Z,89.84
2022-11-18T02:39:35.572Z,89.73
2022-11-18T02:45:58.612Z,89.85
2022-11-18T02:52:18.595Z,89.81
2022-11-18T02:58:41.588Z,89.72
2022-11-18T03:05:01.562Z,89.43
2022-11-18T03:11:24.737Z,89.34
2022-11-18T03:17:44.575Z,89.29
2022-11-18T03:24:07.613Z,89.26
2022-11-18T03:30:27.614Z,89.28
2022-11-18T03:36:52.058Z,89.46
2022-11-18T03:43:10.589Z,89.32
2022-11-18T03:49:33.630Z,89.39
2022-11-18T03:55:53.563Z,89.35
2022-11-18T04:02:16.641Z,89.59
2022-11-18T04:08:36.617Z,89.83
2022-11-18T04:14:59.555Z,89.86
2022-11-18T04:21:19.600Z,89.73
2022-11-18T04:44:07.585Z,90.59
2022-11-18T04:50:30.556Z,90.71
2022-11-18T04:56:50.578Z,90.69
2022-11-18T05:03:13.627Z,90.67
2022-11-18T05:09:33.637Z,90.66
2022-11-18T05:15:56.594Z,90.41
2022-11-18T05:22:16.595Z,89.92
2022-11-18T05:28:39.629Z,89.7
2022-11-18T05:34:59.571Z,89.63
2022-11-18T05:41:22.700Z,89.78
2022-11-18T05:47:42.563Z,89.66
2022-11-18T05:54:05.563Z,89.49
2022-11-18T06:00:25.677Z,89.41
2022-11-18T06:06:48.593Z,89.57
2022-11-18T06:13:08.599Z,89.57
2022-11-18T06:19:31.604Z,90.01
2022-11-18T06:25:51.597Z,90.18
2022-11-18T06:32:14.606Z,90.37
2022-11-18T06:38:34.623Z,90.59
2022-11-18T06:44:57.634Z,90.52
2022-11-18T06:51:17.598Z,90.54
2022-11-18T06:57:41.048Z,90.7
2022-11-18T07:04:00.611Z,90.73
2022-11-18T07:10:23.553Z,91.04
2022-11-18T07:16:43.614Z,90.85
2022-11-18T07:23:06.593Z,90.92
2022-11-18T07:29:26.670Z,90.83
2022-11-18T07:35:49.652Z,90.92
2022-11-18T07:42:09.580Z,90.75
2022-11-18T07:48:32.582Z,90.43
2022-11-18T07:54:52.624Z,90.34
2022-11-18T08:01:15.670Z,90.26
2022-11-18T08:07:35.649Z,90.12
2022-11-18T08:13:58.595Z,89.99
2022-11-18T08:20:18.589Z,90.23
2022-11-18T08:26:41.577Z,90.01
2022-11-18T08:33:01.623Z,90.06
2022-11-18T08:39:24.619Z,90.05
2022-11-18T08:45:44.576Z,89.97
2022-11-18T08:52:07.729Z,90.15
2022-11-18T08:58:27.599Z,89.94
2022-11-18T09:04:50.566Z,89.5
2022-11-18T09:11:10.639Z,89.46
2022-11-18T09:17:33.591Z,89.4
2022-11-18T09:23:53.559Z,89.34
2022-11-18T09:30:16.626Z,88.74
2022-11-18T09:36:36.574Z,88.39
2022-11-18T09:59:41.578Z,86.48
2022-11-18T10:06:04.575Z,85.53
2022-11-18T10:12:24.603Z,84.63
2022-11-18T10:19:03.034Z,84.02
2022-11-18T10:25:07.554Z,84.19
2022-11-18T10:31:30.608Z,84.54
2022-11-18T10:38:07.106Z,77.9
2022-11-18T10:44:13.586Z,78
2022-11-18T10:50:33.580Z,76.48
2022-11-18T10:56:58.419Z,78.35
2022-11-18T11:03:16.585Z,76.67
2022-11-18T11:09:39.591Z,76.03
2022-11-18T11:15:59.653Z,75.85
2022-11-18T11:22:22.565Z,76.03
2022-11-18T11:28:42.580Z,74.07
2022-11-18T11:35:05.606Z,72.45
2022-11-18T11:41:25.574Z,73.98
2022-11-18T11:47:48.610Z,73.62
2022-11-18T11:54:08.602Z,73.5
2022-11-18T12:00:31.589Z,71.44
2022-11-18T12:06:51.607Z,70.55
2022-11-18T12:13:14.631Z,70.12
2022-11-18T12:19:34.593Z,67.97
2022-11-18T12:25:57.562Z,66.01
2022-11-18T12:32:17.595Z,64.55
2022-11-18T12:38:40.601Z,64.22
2022-11-18T12:45:00.583Z,64.52
2022-11-18T12:51:23.699Z,62.88
2022-11-18T12:57:43.585Z,62.03
2022-11-18T13:04:06.578Z,63.02
2022-11-18T13:10:26.631Z,63.41
2022-11-18T13:16:49.560Z,63.9
2022-11-18T13:23:09.597Z,65.05
2022-11-18T13:29:32.601Z,66.98
2022-11-18T13:35:52.578Z,67.51
2022-11-18T13:42:15.581Z,72.13
2022-11-18T13:48:35.603Z,78.18
2022-11-18T13:54:58.587Z,80.29
2022-11-18T14:01:18.661Z,83.31
2022-11-18T14:07:41.608Z,82.63
2022-11-18T14:14:01.568Z,84.24
2022-11-18T14:20:24.607Z,84.21
2022-11-18T14:26:44.679Z,79.92
2022-11-18T14:33:07.706Z,83.67
2022-11-18T14:39:27.727Z,82.88
2022-11-18T14:45:50.734Z,84.36
2022-11-18T14:52:10.558Z,84.7
2022-11-18T14:58:33.598Z,84.31
2022-11-18T15:04:53.690Z,85.13
2022-11-18T15:21:21.529Z,87.03
2022-11-18T15:27:41.590Z,86.66
2022-11-18T15:34:06.846Z,86.24
2022-11-18T15:40:24.594Z,86.34
2022-11-18T15:46:47.798Z,86.29
2022-11-18T15:53:07.780Z,86.01
2022-11-18T15:59:30.681Z,86.57
2022-11-18T16:05:50.885Z,87.06
2022-11-18T16:12:13.599Z,87.22
2022-11-18T16:18:37.894Z,87.17
2022-11-18T16:24:56.609Z,87.01
2022-11-18T16:31:16.609Z,87.22
2022-11-18T16:37:39.635Z,86.91
2022-11-18T16:43:59.601Z,86.42
2022-11-18T16:50:22.745Z,86.65
2022-11-18T16:56:42.620Z,86.83
2022-11-18T17:03:05.626Z,86.9
2022-11-18T17:09:25.612Z,87.75
2022-11-18T17:15:48.600Z,87.95
2022-11-18T17:22:08.586Z,88.56
2022-11-18T17:28:31.641Z,88.86
2022-11-18T17:34:51.650Z,89.17
2022-11-18T17:41:14.623Z,89.65
2022-11-18T17:47:34.602Z,88.39
2022-11-18T17:53:57.619Z,88.81
2022-11-18T18:00:17.583Z,89.63
2022-11-18T18:06:40.601Z,89.38
2022-11-18T18:13:00.612Z,88.82
2022-11-18T18:19:23.573Z,88.71
2022-11-18T18:25:43.590Z,88.69
2022-11-18T18:32:06.678Z,89.1
2022-11-18T18:38:26.582Z,89.15
2022-11-18T18:44:49.592Z,88.44
2022-11-18T18:51:09.670Z,88.15
2022-11-18T18:57:32.584Z,88.13
2022-11-18T19:03:52.595Z,89.12
2022-11-18T19:10:15.583Z,88.84
2022-11-18T19:16:35.597Z,88.49
2022-11-18T19:22:58.711Z,88.53
2022-11-18T19:29:21.506Z,88.53
2022-11-18T19:35:41.617Z,88.01
2022-11-18T19:42:01.787Z,88.5
2022-11-18T19:48:24.934Z,88.32
2022-11-18T19:54:44.564Z,88.45
2022-11-18T20:01:07.622Z,88.78
2022-11-18T20:07:27.664Z,89.04
2022-11-18T20:23:20.684Z,89.28
2022-11-18T20:29:40.557Z,89.39
2022-11-18T20:36:03.580Z,89.16
2022-11-18T20:42:23.671Z,89.29
2022-11-18T20:48:46.556Z,89.14
2022-11-18T20:55:06.611Z,89.17
2022-11-18T21:01:29.751Z,88.77
2022-11-18T21:07:49.559Z,88.74
2022-11-18T21:14:12.618Z,88.8
2022-11-18T21:20:32.596Z,88.55
2022-11-18T21:26:55.652Z,89.03
2022-11-18T21:33:15.859Z,89.19
2022-11-18T21:39:38.634Z,89.1
2022-11-18T21:45:58.583Z,89.55
2022-11-18T21:52:21.616Z,89.83
2022-11-18T21:58:41.615Z,89.69
2022-11-18T22:05:04.595Z,89.67
2022-11-18T22:11:24.575Z,89.79
2022-11-18T22:17:47.613Z,89.87
2022-11-18T22:24:07.592Z,89.88
2022-11-18T22:30:30.594Z,89.97
2022-11-18T22:36:50.598Z,90.12
2022-11-18T22:43:13.552Z,90.23
2022-11-18T22:49:33.608Z,90.49
2022-11-18T22:55:56.592Z,90.57
2022-11-18T23:20:11.586Z,90.67
2022-11-18T23:26:31.578Z,90.7
2022-11-18T23:32:54.580Z,90.67
2022-11-18T23:39:14.622Z,90.9
2022-11-18T23:45:37.650Z,91
2022-11-18T23:51:57.557Z,90.91
2022-11-18T23:58:20.636Z,90.52
